Home > Products > Valid Products > TAF

000
FTUS44 KLUB 031500 AAA
TAFLBB
TAF AMD
KLBB 031500Z 0315/0412 22009KT 2SM BR OVC002
      TEMPO 0315/0317 4SM BR BKN005 OVC010
     FM031800 22010KT P6SM BKN100
     FM032100 22010KT P6SM VCSH BKN050 OVC100
     FM040300 16011KT 3SM BR BKN010=



000
FTUS44 KLUB 031125
TAFCDS
TAF
KCDS 031125Z 0312/0412 18008KT 6SM BR BKN150
     FM031300 20009KT P6SM BKN100
     FM040400 04005KT P6SM BKN100
     FM040800 04012KT P6SM BKN010 OVC050=



000
FTUS44 KLUB 031125
TAFLBB
TAF
KLBB 031125Z 0312/0412 22009KT 4SM BR OVC002
      TEMPO 0312/0313 2SM BR BKN005 OVC010
     FM031700 22010KT P6SM BKN100
     FM032100 22010KT P6SM VCSH BKN050 OVC100
     FM040300 16011KT 3SM BR BKN010=



000
FTUS44 KLUB 031003 AAA
TAFLBB
TAF AMD
KLBB 031003Z 0310/0406 22011KT 6SM BR OVC003
      TEMPO 0310/0313 2SM BR BKN005 OVC010
     FM031300 27010KT P6SM BKN100=



000
FTUS44 KLUB 031003 AAA
TAFLBB
TAF AMD
KLBB 031003Z 0310/0406 22011KT 6SM BR OVC003
      TEMPO 0310/0313 2SM BR BKN005 OVC010
     FM031300 27010KT P6SM BKN100=



000
FTUS44 KLUB 030541
TAFCDS
TAF
KCDS 030541Z 0306/0406 20010KT 6SM BR BKN010 OVC100
     FM031300 23009KT P6SM BKN100
     FM032300 11005KT P6SM BKN100=



000
FTUS44 KLUB 030541
TAFCDS
TAF
KCDS 030541Z 0306/0406 20010KT 6SM BR BKN010 OVC100
     FM031300 23009KT P6SM BKN100
     FM032300 11005KT P6SM BKN100=



000
FTUS44 KLUB 030541
TAFLBB
TAF
KLBB 030541Z 0306/0406 20009KT 2SM BR OVC002
      TEMPO 0306/0310 1/2SM FG
     FM031000 22011KT 4SM BR SCT010 BKN100
     FM031300 27010KT P6SM BKN100=



000
FTUS44 KLUB 030541
TAFLBB
TAF
KLBB 030541Z 0306/0406 20009KT 2SM BR OVC002
      TEMPO 0306/0310 1/2SM FG
     FM031000 22011KT 4SM BR SCT010 BKN100
     FM031300 27010KT P6SM BKN100=



000
FTUS44 KLUB 030401 AAC
TAFLBB
TAF AMD
KLBB 030401Z 0304/0324 19011KT 2SM BR OVC002
      TEMPO 0304/0306 1/2SM FG
     FM030600 19011KT 3SM BR BKN005 OVC015
     FM030800 19011KT 4SM BR SCT010 BKN100
     FM031300 23012KT P6SM BKN100=



000
FTUS44 KLUB 030356 AAC
TAFCDS
TAF AMD
KCDS 030356Z 0304/0324 18008KT P6SM BKN015 OVC100
      TEMPO 0304/0306 SCT020
     FM030600 18010KT 5SM BR BKN010 OVC100
     FM031400 22009KT P6SM BKN100=



000
FTUS44 KLUB 030356 AAC
TAFCDS
TAF AMD
KCDS 030356Z 0304/0324 18008KT P6SM BKN015 OVC100
      TEMPO 0304/0306 SCT020
     FM030600 18010KT 5SM BR BKN010 OVC100
     FM031400 22009KT P6SM BKN100=



000
FTUS44 KLUB 030226 AAB
TAFCDS
TAF AMD
KCDS 030226Z 0302/0324 18008KT P6SM FEW020 BKN100
      TEMPO 0302/0305 BKN020
     FM030500 18010KT 5SM BR BKN010 OVC100
     FM031400 22009KT P6SM BKN100=



000
FTUS44 KLUB 030226 AAB
TAFCDS
TAF AMD
KCDS 030226Z 0302/0324 18008KT P6SM FEW020 BKN100
      TEMPO 0302/0305 BKN020
     FM030500 18010KT 5SM BR BKN010 OVC100
     FM031400 22009KT P6SM BKN100=



000
FTUS44 KLUB 030159 AAB
TAFLBB
TAF AMD
KLBB 030159Z 0302/0324 18008KT 1/2SM FG OVC002
     FM030300 19011KT 3SM BR BKN005 OVC015
     FM030500 19011KT 4SM BR SCT010 BKN100
     FM031300 23012KT P6SM BKN100=



000
FTUS44 KLUB 030157 AAA
TAFCDS
TAF AMD
KCDS 030157Z 0302/0324 18008KT P6SM FEW020 BKN100
     FM030500 18010KT 5SM BR BKN010 OVC100
     FM031400 22009KT P6SM BKN100=



000
FTUS44 KLUB 030157 AAA
TAFCDS
TAF AMD
KCDS 030157Z 0302/0324 18008KT P6SM FEW020 BKN100
     FM030500 18010KT 5SM BR BKN010 OVC100
     FM031400 22009KT P6SM BKN100=



000
FTUS44 KLUB 030112 AAA
TAFLBB
TAF AMD
KLBB 030112Z 0301/0324 18008KT 1SM BR OVC003
     FM030300 19011KT 3SM BR BKN005 OVC015
     FM030500 19011KT 4SM BR SCT010 BKN100
     FM031300 23012KT P6SM BKN100=



000
FTUS44 KLUB 030112 AAA
TAFLBB
TAF AMD
KLBB 030112Z 0301/0324 18008KT 1SM BR OVC003
     FM030300 19011KT 3SM BR BKN005 OVC015
     FM030500 19011KT 4SM BR SCT010 BKN100
     FM031300 23012KT P6SM BKN100=



000
FTUS44 KLUB 022333
TAFCDS
TAF
KCDS 022333Z 0300/0324 18011KT P6SM OVC025
     FM030500 18010KT 5SM BR BKN010 OVC100
     FM031400 22009KT P6SM BKN100=



000
FTUS44 KLUB 022333
TAFLBB
TAF
KLBB 022333Z 0300/0324 18008KT 3SM BR BKN004 OVC010
     FM030200 19011KT 5SM BR SCT015 BKN100
     FM030500 19011KT 4SM BR SCT010 BKN100
     FM031300 23012KT P6SM BKN100=



000
FTUS44 KLUB 022210 AAB
TAFLBB
TAF AMD
KLBB 022210Z 0222/0318 18008KT 3SM BR BKN004 OVC010
     FM030000 19011KT 5SM BR SCT015 BKN100
     FM030500 19011KT 4SM BR SCT010 BKN100=



000
FTUS44 KLUB 022003 AAA
TAFLBB
TAF AMD
KLBB 022003Z 0220/0318 17009KT 3SM BR OVC010
      TEMPO 0220/0221 1/2SM FG OVC002
     FM030000 19011KT 5SM BR SCT015 BKN100
     FM030500 19011KT 4SM BR SCT010 BKN100=



000
FTUS44 KLUB 022003 AAA
TAFLBB
TAF AMD
KLBB 022003Z 0220/0318 17009KT 3SM BR OVC010
      TEMPO 0220/0221 1/2SM FG OVC002
     FM030000 19011KT 5SM BR SCT015 BKN100
     FM030500 19011KT 4SM BR SCT010 BKN100=



000
FTUS44 KLUB 021740
TAFCDS
TAF
KCDS 021740Z 0218/0318 15006KT 5SM BR OVC030
     FM022100 18011KT P6SM SCT030 BKN100
     FM030500 18010KT 5SM BR BKN010 OVC100=



000
FTUS44 KLUB 021740
TAFLBB
TAF
KLBB 021740Z 0218/0318 17009KT 3SM BR OVC010
      TEMPO 0218/0220 1/2SM FG OVC002
     FM022300 19011KT P6SM SCT015 BKN100
     FM030500 19011KT 4SM BR SCT010 BKN100=



000
FTUS44 KLUB 021740
TAFCDS
TAF
KCDS 021740Z 0218/0318 15006KT 5SM BR OVC030
     FM022100 18011KT P6SM SCT030 BKN100
     FM030500 18010KT 5SM BR BKN010 OVC100=



000
FTUS44 KLUB 021740
TAFLBB
TAF
KLBB 021740Z 0218/0318 17009KT 3SM BR OVC010
      TEMPO 0218/0220 1/2SM FG OVC002
     FM022300 19011KT P6SM SCT015 BKN100
     FM030500 19011KT 4SM BR SCT010 BKN100=



000
FTUS44 KLUB 021508 AAA
TAFLBB
TAF AMD
KLBB 021508Z 0215/0312 13007KT 1SM BR OVC003
     FM021700 18007KT P6SM OVC020
     FM022100 17008KT P6SM OVC050=



000
FTUS44 KLUB 021120
TAFLBB
TAF
KLBB 021120Z 0212/0312 07006KT 1/2SM FG OVC002
     FM021500 11005KT 3SM BR OVC007
     FM021800 18007KT P6SM OVC020
     FM022100 17008KT P6SM OVC050=



000
FTUS44 KLUB 021120
TAFCDS
TAF
KCDS 021120Z 0212/0312 09006KT P6SM OVC025
     FM021800 16008KT P6SM BKN050=



000
FTUS44 KLUB 021120
TAFCDS
TAF
KCDS 021120Z 0212/0312 09006KT P6SM OVC025
     FM021800 16008KT P6SM BKN050=



000
FTUS44 KLUB 021120
TAFLBB
TAF
KLBB 021120Z 0212/0312 07006KT 1/2SM FG OVC002
     FM021500 11005KT 3SM BR OVC007
     FM021800 18007KT P6SM OVC020
     FM022100 17008KT P6SM OVC050=



000
FTUS44 KLUB 020744 AAB
TAFLBB
TAF AMD
KLBB 020744Z 0208/0306 07006KT 2SM BR OVC005
     FM020900 07006KT 1/2SM FG OVC002
     FM021500 11005KT 3SM BR OVC007
     FM022100 17008KT P6SM OVC020=



000
FTUS44 KLUB 020624 AAA
TAFLBB
TAF AMD
KLBB 020624Z 0206/0306 07006KT 5SM BR OVC005
     FM020900 07006KT 1/2SM FG OVC002
     FM021500 11005KT 3SM BR OVC007
     FM022100 17008KT P6SM OVC020=



000
FTUS44 KLUB 020624 AAA
TAFLBB
TAF AMD
KLBB 020624Z 0206/0306 07006KT 5SM BR OVC005
     FM020900 07006KT 1/2SM FG OVC002
     FM021500 11005KT 3SM BR OVC007
     FM022100 17008KT P6SM OVC020=



000
FTUS44 KLUB 020520
TAFCDS
TAF
KCDS 020520Z 0206/0306 09006KT P6SM OVC025
      TEMPO 0210/0214 4SM BR OVC015
     FM021800 16008KT P6SM BKN050=



000
FTUS44 KLUB 020520
TAFLBB
TAF
KLBB 020520Z 0206/0306 07006KT 5SM BR OVC004
     FM020900 07006KT 1/2SM FG OVC002
     FM021500 11005KT 3SM BR OVC007
     FM022100 17008KT P6SM OVC020=



000
FTUS44 KLUB 020520
TAFCDS
TAF
KCDS 020520Z 0206/0306 09006KT P6SM OVC025
      TEMPO 0210/0214 4SM BR OVC015
     FM021800 16008KT P6SM BKN050=



000
FTUS44 KLUB 020520
TAFLBB
TAF
KLBB 020520Z 0206/0306 07006KT 5SM BR OVC004
     FM020900 07006KT 1/2SM FG OVC002
     FM021500 11005KT 3SM BR OVC007
     FM022100 17008KT P6SM OVC020=



000
FTUS44 KLUB 020410 AAA
TAFCDS
TAF AMD
KCDS 020410Z 0204/0224 09006KT P6SM OVC025
      TEMPO 0212/0216 4SM BR OVC015
     FM022100 16008KT P6SM OVC050=



000
FTUS44 KLUB 020410 AAA
TAFCDS
TAF AMD
KCDS 020410Z 0204/0224 09006KT P6SM OVC025
      TEMPO 0212/0216 4SM BR OVC015
     FM022100 16008KT P6SM OVC050=



000
FTUS44 KLUB 020226 AAA
TAFLBB
TAF AMD
KLBB 020226Z 0202/0224 06006KT P6SM OVC008
     FM020700 10006KT 1/2SM FG OVC002
     FM021800 17005KT P6SM OVC007
     FM022100 17008KT P6SM OVC015=



000
FTUS44 KLUB 020226 AAA
TAFLBB
TAF AMD
KLBB 020226Z 0202/0224 06006KT P6SM OVC008
     FM020700 10006KT 1/2SM FG OVC002
     FM021800 17005KT P6SM OVC007
     FM022100 17008KT P6SM OVC015=



000
FTUS44 KLUB 012334
TAFLBB
TAF
KLBB 012334Z 0200/0224 02006KT P6SM OVC008
     FM020300 05006KT 1/2SM FG OVC002
     FM021800 17005KT P6SM OVC007
     FM022100 17008KT P6SM OVC015=



000
FTUS44 KLUB 012334
TAFCDS
TAF
KCDS 012334Z 0200/0224 05006KT P6SM OVC019
     FM020400 03006KT P6SM BKN008 OVC019
     FM021600 13006KT P6SM OVC015=



000
FTUS44 KLUB 012334
TAFLBB
TAF
KLBB 012334Z 0200/0224 02006KT P6SM OVC008
     FM020300 05006KT 1/2SM FG OVC002
     FM021800 17005KT P6SM OVC007
     FM022100 17008KT P6SM OVC015=



000
FTUS44 KLUB 012334
TAFCDS
TAF
KCDS 012334Z 0200/0224 05006KT P6SM OVC019
     FM020400 03006KT P6SM BKN008 OVC019
     FM021600 13006KT P6SM OVC015=



000
FTUS44 KLUB 012055 AAB
TAFLBB
TAF AMD
KLBB 012055Z 0121/0218 06006KT P6SM OVC008
     FM020300 08007KT 1/2SM FG VV002=



000
FTUS44 KLUB 012055 AAB
TAFLBB
TAF AMD
KLBB 012055Z 0121/0218 06006KT P6SM OVC008
     FM020300 08007KT 1/2SM FG VV002=



000
FTUS44 KLUB 011955 AAA
TAFLBB
TAF AMD
KLBB 011955Z 0120/0218 13005KT P6SM OVC005
     FM020300 08007KT 1/2SM FG VV002=



000
FTUS44 KLUB 011955 AAA
TAFLBB
TAF AMD
KLBB 011955Z 0120/0218 13005KT P6SM OVC005
     FM020300 08007KT 1/2SM FG VV002=



000
FTUS44 KLUB 011720
TAFLBB
TAF
KLBB 011720Z 0118/0218 13007KT 2SM BR OVC003
      TEMPO 0118/0119 OVC002
     FM020300 08007KT 1/2SM FG VV002=



000
FTUS44 KLUB 011720
TAFCDS
TAF
KCDS 011720Z 0118/0218 05006KT P6SM SCT008 OVC020=



000
FTUS44 KLUB 011720
TAFCDS
TAF
KCDS 011720Z 0118/0218 05006KT P6SM SCT008 OVC020=



000
FTUS44 KLUB 011720
TAFLBB
TAF
KLBB 011720Z 0118/0218 13007KT 2SM BR OVC003
      TEMPO 0118/0119 OVC002
     FM020300 08007KT 1/2SM FG VV002=



000
FTUS44 KLUB 011409 AAB
TAFCDS
TAF AMD
KCDS 011409Z 0115/0212 VRB03KT 6SM BR SCT005 OVC015=



000
FTUS44 KLUB 011357 AAA
TAFCDS
TAF AMD
KCDS 011357Z 0114/0212 VRB04KT 6SM BR OVC005
      TEMPO 0114/0115 SCT005=



000
FTUS44 KLUB 011357 AAA
TAFCDS
TAF AMD
KCDS 011357Z 0114/0212 VRB04KT 6SM BR OVC005
      TEMPO 0114/0115 SCT005=



000
FTUS44 KLUB 011322 AAA
TAFLBB
TAF AMD
KLBB 011322Z 0113/0212 17004KT 1 1/2SM BR OVC003
     FM020200 08007KT 1/2SM FG VV002=



000
FTUS44 KLUB 011322 AAA
TAFLBB
TAF AMD
KLBB 011322Z 0113/0212 17004KT 1 1/2SM BR OVC003
     FM020200 08007KT 1/2SM FG VV002=



000
FTUS44 KLUB 011122
TAFCDS
TAF
KCDS 011122Z 0112/0212 VRB04KT 3SM BR OVC003=



000
FTUS44 KLUB 011122
TAFLBB
TAF
KLBB 011122Z 0112/0212 VRB04KT 1/4SM FZFG VV002=



000
FTUS44 KLUB 010525
TAFCDS
TAF
KCDS 010525Z 0106/0206 VRB04KT 1 1/2SM BR OVC004
     FM011800 VRB04KT 4SM BR OVC007=



000
FTUS44 KLUB 010525
TAFLBB
TAF
KLBB 010525Z 0106/0206 16007KT 1/4SM FZFG VV002
     FM011800 VRB04KT 4SM BR OVC004=



000
FTUS44 KLUB 010320 AAA
TAFLBB
TAF AMD
KLBB 010320Z 0103/0124 16007KT 1/4SM FZFG VV002
     FM011800 17009KT 4SM BR OVC004=



000
FTUS44 KLUB 010320 AAA
TAFLBB
TAF AMD
KLBB 010320Z 0103/0124 16007KT 1/4SM FZFG VV002
     FM011800 17009KT 4SM BR OVC004=



000
FTUS44 KLUB 282322
TAFLBB
TAF
KLBB 282322Z 0100/0124 16007KT 1 1/2SM BR OVC002=



000
FTUS44 KLUB 282322
TAFCDS
TAF
KCDS 282322Z 0100/0124 11006KT 1 1/2SM BR OVC004=



000
FTUS44 KLUB 282322
TAFLBB
TAF
KLBB 282322Z 0100/0124 16007KT 1 1/2SM BR OVC002=



000
FTUS44 KLUB 282322
TAFCDS
TAF
KCDS 282322Z 0100/0124 11006KT 1 1/2SM BR OVC004=



000
FTUS44 KLUB 281720
TAFLBB
TAF
KLBB 281720Z 2818/0118 15008KT 2SM BR OVC003=



000
FTUS44 KLUB 281720
TAFCDS
TAF
KCDS 281720Z 2818/0118 14006KT 2SM BR OVC006=



000
FTUS44 KLUB 281720
TAFLBB
TAF
KLBB 281720Z 2818/0118 15008KT 2SM BR OVC003=



000
FTUS44 KLUB 281720
TAFCDS
TAF
KCDS 281720Z 2818/0118 14006KT 2SM BR OVC006=



    US Dept of Commerce
    National Oceanic and Atmospheric Administration
    National Weather Service
    1325 East West Highway
    Silver Spring, MD 20910
    Page Author: NWS Internet Services Team
Disclaimer
Information Quality
Credits
Glossary
Privacy Policy
Freedom of Information Act (FOIA)
About Us
Career Opportunities